createdAt,value
2022-12-15T00:00:51.205Z,17.52
2022-12-15T00:03:37.482Z,17.80
2022-12-15T00:06:23.861Z,19.13
2022-12-15T00:09:14.187Z,18.88
2022-12-15T00:12:00.336Z,18.63
2022-12-15T00:14:49.685Z,18.48
2022-12-15T00:17:35.643Z,18.05
2022-12-15T00:20:21.599Z,18.73
2022-12-15T00:23:09.805Z,17.25
2022-12-15T00:25:56.495Z,18.67
2022-12-15T00:28:45.107Z,19.50
2022-12-15T00:31:31.572Z,19.17
2022-12-15T00:34:17.870Z,18.33
2022-12-15T00:37:05.967Z,20.38
2022-12-15T00:39:33.220Z,21.15
2022-12-15T00:42:00.192Z,20.90
2022-12-15T00:44:27.940Z,20.50
2022-12-15T00:46:55.654Z,18.20
2022-12-15T00:49:57.350Z,20.35
2022-12-15T00:52:48.605Z,19.42
2022-12-15T00:55:34.096Z,19.55
2022-12-15T00:58:20.771Z,19.42
2022-12-15T01:01:07.608Z,19.80
2022-12-15T01:03:54.628Z,20.13
2022-12-15T01:06:41.401Z,19.23
2022-12-15T01:09:34.305Z,19.67
2022-12-15T01:12:20.492Z,18.33
2022-12-15T01:15:06.065Z,20.13
2022-12-15T01:17:51.744Z,18.83
2022-12-15T01:20:18.883Z,19.52
2022-12-15T01:22:55.179Z,18.17
2022-12-15T01:25:25.203Z,20.17
2022-12-15T01:27:52.311Z,19.40
2022-12-15T01:30:25.741Z,18.25
2022-12-15T01:32:53.791Z,19.48
2022-12-15T01:35:25.929Z,18.05
2022-12-15T01:37:54.742Z,16.98
2022-12-15T01:40:44.176Z,18.13
2022-12-15T01:43:17.700Z,19.15
2022-12-15T01:45:52.610Z,18.55
2022-12-15T01:48:43.166Z,19.05
2022-12-15T01:51:35.033Z,19.35
2022-12-15T01:54:15.366Z,19.27
2022-12-15T01:56:49.192Z,18.20
2022-12-15T01:59:21.330Z,18.85
2022-12-15T02:01:49.867Z,17.70
2022-12-15T02:04:19.598Z,19.60
2022-12-15T02:06:47.590Z,19.25
2022-12-15T02:09:15.825Z,19.58
2022-12-15T02:12:34.815Z,18.13
2022-12-15T02:15:13.228Z,17.83
2022-12-15T02:18:12.739Z,19.15
2022-12-15T02:21:21.393Z,19.50
2022-12-15T02:23:55.232Z,18.73
2022-12-15T02:26:26.018Z,18.20
2022-12-15T02:29:28.043Z,18.90
2022-12-15T02:32:06.594Z,19.00
2022-12-15T02:35:03.936Z,19.63
2022-12-15T02:37:36.572Z,17.35
2022-12-15T02:40:07.157Z,19.38
2022-12-15T02:42:39.194Z,19.70
2022-12-15T02:45:15.501Z,18.17
2022-12-15T02:48:12.494Z,17.90
2022-12-15T02:50:50.029Z,18.58
2022-12-15T02:53:55.682Z,20.27
2022-12-15T02:56:44.592Z,18.10
2022-12-15T02:59:29.763Z,18.35
2022-12-15T03:02:05.769Z,19.15
2022-12-15T03:04:34.123Z,19.80
2022-12-15T03:07:05.568Z,18.95
2022-12-15T03:12:00.884Z,19.63
2022-12-15T03:14:30.010Z,18.88
2022-12-15T03:16:59.430Z,18.40
2022-12-15T03:19:26.855Z,18.75
2022-12-15T03:21:54.437Z,20.10
2022-12-15T03:24:24.724Z,19.98
2022-12-15T03:26:54.674Z,19.63
2022-12-15T03:29:26.610Z,19.85
2022-12-15T03:31:54.651Z,20.25
2022-12-15T03:34:22.137Z,19.98
2022-12-15T03:36:50.617Z,19.70
2022-12-15T03:39:19.058Z,19.95
2022-12-15T03:41:46.105Z,19.45
2022-12-15T03:44:12.990Z,20.98
2022-12-15T03:46:40.157Z,20.00
2022-12-15T03:49:08.257Z,20.15
2022-12-15T03:51:35.131Z,19.50
2022-12-15T03:54:02.974Z,17.52
2022-12-15T03:56:30.807Z,20.30
2022-12-15T03:58:59.846Z,19.33
2022-12-15T04:01:32.646Z,20.23
2022-12-15T04:04:02.035Z,19.55
2022-12-15T04:06:30.002Z,19.17
2022-12-15T04:08:57.305Z,19.13
2022-12-15T04:11:25.639Z,20.38
2022-12-15T04:13:53.099Z,19.52
2022-12-15T04:16:22.185Z,17.60
2022-12-15T04:19:09.420Z,18.98
2022-12-15T04:21:36.752Z,16.35
2022-12-15T04:24:22.738Z,18.58
2022-12-15T04:27:08.392Z,19.15
2022-12-15T04:29:54.221Z,18.90
2022-12-15T04:32:41.018Z,18.65
2022-12-15T04:35:26.821Z,19.08
2022-12-15T04:38:13.007Z,18.35
2022-12-15T04:40:59.168Z,16.95
2022-12-15T04:43:46.296Z,16.77
2022-12-15T04:46:32.104Z,20.00
2022-12-15T04:49:17.676Z,18.77
2022-12-15T04:52:05.622Z,17.95
2022-12-15T04:54:52.865Z,18.65
2022-12-15T04:57:38.736Z,18.42
2022-12-15T05:00:25.034Z,19.70
2022-12-15T05:03:16.532Z,17.73
2022-12-15T05:06:04.459Z,17.42
2022-12-15T05:08:50.563Z,17.98
2022-12-15T05:11:37.151Z,16.27
2022-12-15T05:14:23.913Z,17.10
2022-12-15T05:17:09.832Z,18.52
2022-12-15T05:19:55.418Z,19.10
2022-12-15T05:22:42.197Z,17.45
2022-12-15T05:25:28.234Z,17.42
2022-12-15T05:28:18.674Z,17.63
2022-12-15T05:31:04.156Z,18.98
2022-12-15T05:33:31.926Z,19.35
2022-12-15T05:35:58.984Z,19.30
2022-12-15T05:38:32.508Z,18.13
2022-12-15T05:40:59.834Z,18.13
2022-12-15T05:43:30.099Z,18.83
2022-12-15T05:45:57.326Z,18.57
2022-12-15T05:48:24.864Z,18.42
2022-12-15T05:50:58.702Z,20.58
2022-12-15T05:53:25.956Z,18.90
2022-12-15T05:55:52.808Z,17.85
2022-12-15T05:58:19.682Z,19.45
2022-12-15T06:00:46.533Z,19.55
2022-12-15T06:03:15.756Z,19.83
2022-12-15T06:05:42.753Z,19.63
2022-12-15T06:08:12.308Z,20.00
2022-12-15T06:10:43.597Z,19.15
2022-12-15T06:13:11.550Z,18.52
2022-12-15T06:15:40.631Z,18.83
2022-12-15T06:18:09.047Z,18.73
2022-12-15T06:20:35.947Z,17.60
2022-12-15T06:23:06.295Z,19.10
2022-12-15T06:25:33.206Z,18.17
2022-12-15T06:28:02.030Z,18.75
2022-12-15T06:30:30.401Z,18.45
2022-12-15T06:32:58.075Z,19.33
2022-12-15T06:35:24.940Z,18.77
2022-12-15T06:37:54.499Z,19.50
2022-12-15T06:40:22.864Z,19.02
2022-12-15T06:42:52.747Z,19.05
2022-12-15T06:45:20.810Z,18.98
2022-12-15T06:47:48.957Z,19.95
2022-12-15T06:50:18.159Z,20.15
2022-12-15T06:52:45.395Z,20.92
2022-12-15T06:55:12.360Z,20.15
2022-12-15T06:57:39.750Z,20.00
2022-12-15T07:00:07.695Z,21.13
2022-12-15T07:02:36.043Z,20.23
2022-12-15T07:05:03.169Z,19.17
2022-12-15T07:07:30.084Z,19.80
2022-12-15T07:09:59.624Z,20.52
2022-12-15T07:12:26.561Z,18.75
2022-12-15T07:14:57.849Z,20.55
2022-12-15T07:17:25.700Z,19.88
2022-12-15T07:19:53.568Z,20.17
2022-12-15T07:22:21.983Z,20.02
2022-12-15T07:24:49.408Z,19.35
2022-12-15T07:27:19.591Z,20.20
2022-12-15T07:29:46.816Z,18.85
2022-12-15T07:32:15.435Z,18.80
2022-12-15T07:34:42.950Z,20.35
2022-12-15T07:37:09.897Z,20.33
2022-12-15T07:39:38.152Z,19.35
2022-12-15T07:42:05.308Z,19.50
2022-12-15T07:44:32.334Z,20.45
2022-12-15T07:47:00.417Z,19.35
2022-12-15T07:49:28.890Z,20.60
2022-12-15T07:51:58.596Z,19.17
2022-12-15T07:54:25.886Z,19.23
2022-12-15T07:56:54.193Z,20.17
2022-12-15T07:59:28.797Z,19.85
2022-12-15T08:01:55.849Z,20.10
2022-12-15T08:04:24.515Z,21.08
2022-12-15T08:06:55.953Z,21.13
2022-12-15T08:11:54.058Z,19.10
2022-12-15T08:14:32.632Z,19.85
2022-12-15T08:16:59.687Z,20.77
2022-12-15T08:19:26.768Z,20.42
2022-12-15T08:21:55.250Z,21.50
2022-12-15T08:24:22.872Z,20.30
2022-12-15T08:26:50.629Z,19.92
2022-12-15T08:29:53.179Z,20.98
2022-12-15T08:32:11.083Z,21.05
2022-12-15T08:34:42.333Z,22.33
2022-12-15T08:37:09.876Z,20.33
2022-12-15T08:39:37.284Z,21.48
2022-12-15T08:42:04.347Z,20.73
2022-12-15T08:44:31.697Z,19.48
2022-12-15T08:46:58.519Z,22.60
2022-12-15T08:49:26.029Z,22.15
2022-12-15T08:51:54.211Z,22.55
2022-12-15T08:54:21.342Z,23.77
2022-12-15T08:56:49.009Z,22.70
2022-12-15T08:59:16.310Z,22.10
2022-12-15T09:01:44.565Z,23.70
2022-12-15T09:04:11.875Z,22.98
2022-12-15T09:06:41.100Z,23.40
2022-12-15T09:09:10.369Z,23.02
2022-12-15T09:11:37.218Z,22.83
2022-12-15T09:14:04.400Z,24.38
2022-12-15T09:16:32.655Z,23.10
2022-12-15T09:19:00.723Z,26.23
2022-12-15T09:21:30.226Z,24.17
2022-12-15T09:24:02.048Z,25.80
2022-12-15T09:26:33.949Z,25.70
2022-12-15T09:29:04.694Z,28.90
2022-12-15T09:31:33.945Z,28.63
2022-12-15T09:34:01.480Z,25.50
2022-12-15T09:36:30.262Z,25.90
2022-12-15T09:38:57.142Z,23.23
2022-12-15T09:41:28.071Z,22.45
2022-12-15T09:44:00.359Z,21.88
2022-12-15T09:47:06.852Z,22.90
2022-12-15T09:49:53.487Z,21.83
2022-12-15T09:52:27.539Z,22.08
2022-12-15T09:54:54.913Z,24.08
2022-12-15T09:57:38.704Z,22.45
2022-12-15T10:00:15.719Z,22.98
2022-12-15T10:03:19.826Z,24.67
2022-12-15T10:06:16.655Z,25.67
2022-12-15T10:09:30.956Z,25.55
2022-12-15T10:12:02.651Z,26.35
2022-12-15T10:14:33.201Z,30.30
2022-12-15T10:17:11.718Z,31.60
2022-12-15T10:20:00.507Z,27.65
2022-12-15T10:22:32.462Z,29.23
2022-12-15T10:25:14.402Z,26.45
2022-12-15T10:27:47.146Z,24.98
2022-12-15T10:30:16.811Z,27.00
2022-12-15T10:33:11.658Z,25.55
2022-12-15T10:35:40.625Z,24.95
2022-12-15T10:38:38.037Z,25.08
2022-12-15T10:41:07.605Z,27.25
2022-12-15T10:43:42.002Z,25.38
2022-12-15T10:46:27.157Z,26.30
2022-12-15T10:49:07.752Z,23.30
2022-12-15T10:51:55.407Z,24.40
2022-12-15T10:54:24.681Z,23.17
2022-12-15T10:56:55.103Z,23.50
2022-12-15T10:59:40.878Z,24.63
2022-12-15T11:02:29.873Z,24.15
2022-12-15T11:05:15.761Z,23.08
2022-12-15T11:07:54.700Z,24.73
2022-12-15T11:10:25.530Z,24.10
2022-12-15T11:13:01.364Z,24.52
2022-12-15T11:15:38.837Z,23.95
2022-12-15T11:18:18.611Z,22.13
2022-12-15T11:21:12.787Z,22.40
2022-12-15T11:24:08.431Z,22.13
2022-12-15T11:26:54.179Z,21.33
2022-12-15T11:29:39.915Z,19.65
2022-12-15T11:32:13.144Z,19.65
2022-12-15T11:34:44.574Z,19.92
2022-12-15T11:37:36.432Z,19.88
2022-12-15T11:40:33.809Z,20.05
2022-12-15T11:43:38.548Z,20.17
2022-12-15T11:46:11.653Z,20.85
2022-12-15T11:49:09.455Z,20.42
2022-12-15T11:51:58.290Z,20.92
2022-12-15T11:54:38.164Z,19.55
2022-12-15T11:57:35.059Z,21.02
2022-12-15T12:00:13.640Z,20.05
2022-12-15T12:03:13.510Z,20.23
2022-12-15T12:12:02.413Z,21.15
2022-12-15T12:15:00.069Z,20.13
2022-12-15T12:17:34.211Z,20.48
2022-12-15T12:20:24.638Z,22.20
2022-12-15T12:23:16.242Z,22.42
2022-12-15T12:26:03.430Z,21.67
2022-12-15T12:28:48.829Z,21.27
2022-12-15T12:31:38.478Z,20.73
2022-12-15T12:34:16.387Z,23.10
2022-12-15T12:36:44.802Z,21.80
2022-12-15T12:39:23.701Z,22.52
2022-12-15T12:42:47.822Z,22.15
2022-12-15T12:45:19.588Z,22.73
2022-12-15T12:47:50.366Z,22.30
2022-12-15T12:50:19.225Z,22.33
2022-12-15T12:53:00.739Z,23.52
2022-12-15T12:55:30.629Z,23.25
2022-12-15T12:57:58.468Z,22.20
2022-12-15T13:00:27.484Z,23.63
2022-12-15T13:03:12.600Z,24.13
2022-12-15T13:05:59.909Z,23.73
2022-12-15T13:08:29.701Z,23.63
2022-12-15T13:10:56.704Z,24.67
2022-12-15T13:13:32.748Z,25.13
2022-12-15T13:16:25.687Z,26.35
2022-12-15T13:19:02.066Z,26.02
2022-12-15T13:21:44.467Z,25.33
2022-12-15T13:24:30.001Z,25.23
2022-12-15T13:27:08.941Z,25.60
2022-12-15T13:29:37.754Z,25.60
2022-12-15T13:32:04.787Z,24.90
2022-12-15T13:34:39.014Z,26.10
2022-12-15T13:37:26.765Z,24.90
2022-12-15T13:39:56.782Z,24.40
2022-12-15T13:45:32.119Z,25.77
2022-12-15T13:47:59.528Z,26.83
2022-12-15T13:50:36.284Z,27.00
2022-12-15T13:53:30.841Z,26.05
2022-12-15T13:56:52.920Z,27.90
2022-12-15T13:59:42.002Z,26.73
2022-12-15T14:02:29.580Z,27.38
2022-12-15T14:05:17.427Z,24.17
2022-12-15T14:07:59.409Z,25.00
2022-12-15T14:10:44.764Z,25.70
2022-12-15T14:13:29.199Z,26.63
2022-12-15T14:16:17.563Z,25.55
2022-12-15T14:18:48.329Z,27.45
2022-12-15T14:21:23.646Z,26.48
2022-12-15T14:26:41.703Z,27.85
2022-12-15T14:29:10.627Z,27.90
2022-12-15T14:31:38.237Z,28.25
2022-12-15T14:34:19.737Z,26.15
2022-12-15T14:36:50.380Z,26.90
2022-12-15T14:39:28.302Z,30.10
2022-12-15T14:41:57.717Z,29.35
2022-12-15T14:44:49.762Z,30.65
2022-12-15T14:47:23.767Z,30.35
2022-12-15T14:49:56.857Z,31.77
2022-12-15T14:52:40.242Z,30.38
2022-12-15T14:55:39.826Z,28.42
2022-12-15T14:58:39.859Z,28.90
2022-12-15T15:01:25.306Z,29.55
2022-12-15T15:03:12.649Z,20.70
2022-12-15T15:04:00.857Z,31.05
2022-12-15T15:06:51.965Z,30.73
2022-12-15T15:09:25.592Z,29.73
2022-12-15T15:12:17.404Z,29.90
2022-12-15T15:14:48.457Z,33.55
2022-12-15T15:17:24.509Z,34.42
2022-12-15T15:20:02.419Z,32.63
2022-12-15T15:22:37.637Z,33.08
2022-12-15T15:25:25.339Z,33.35
2022-12-15T15:27:52.705Z,32.17
2022-12-15T15:30:24.655Z,32.60
2022-12-15T15:32:58.784Z,31.75
2022-12-15T15:35:31.345Z,33.20
2022-12-15T15:38:21.944Z,33.33
2022-12-15T15:41:01.408Z,33.88
2022-12-15T15:43:29.203Z,33.75
2022-12-15T15:46:47.290Z,35.28
2022-12-15T15:49:18.034Z,32.92
2022-12-15T15:51:45.419Z,34.92
2022-12-15T15:54:15.569Z,34.35
2022-12-15T15:56:42.610Z,34.17
2022-12-15T15:59:14.241Z,33.70
2022-12-15T16:01:41.705Z,33.50
2022-12-15T16:04:09.217Z,37.15
2022-12-15T16:06:42.119Z,35.75
2022-12-15T16:09:15.271Z,34.58
2022-12-15T16:11:44.884Z,34.90
2022-12-15T16:14:16.494Z,35.90
2022-12-15T16:16:44.735Z,36.50
2022-12-15T16:19:14.727Z,35.95
2022-12-15T16:21:45.238Z,36.17
